createdAt,value
2022-09-14T00:00:16.137Z,46.31
2022-09-14T00:00:58.532Z,46.49
2022-09-14T00:01:39.166Z,46.59
2022-09-14T00:02:10.725Z,46.67
2022-09-14T00:02:42.288Z,46.65
2022-09-14T00:03:13.904Z,46.24
2022-09-14T00:03:45.447Z,46.36
2022-09-14T00:04:17.045Z,46.38
2022-09-14T00:04:48.476Z,46.28
2022-09-14T00:05:19.880Z,46.42
2022-09-14T00:05:51.392Z,46.55
2022-09-14T00:06:22.857Z,46.26
2022-09-14T00:06:54.277Z,46.48
2022-09-14T00:07:25.734Z,46.62
2022-09-14T00:07:57.506Z,46.48
2022-09-14T00:08:29.022Z,46.52
2022-09-14T00:09:00.607Z,46.56
2022-09-14T00:09:32.064Z,46.33
2022-09-14T00:10:03.560Z,46.26
2022-09-14T00:10:35.025Z,46.50
2022-09-14T00:11:06.393Z,46.26
2022-09-14T00:11:37.788Z,46.44
2022-09-14T00:12:09.162Z,46.33
2022-09-14T00:12:40.587Z,46.15
2022-09-14T00:13:12.134Z,46.33
2022-09-14T00:13:43.512Z,46.37
2022-09-14T00:14:14.943Z,46.20
2022-09-14T00:14:46.412Z,46.25
2022-09-14T00:15:17.835Z,45.87
2022-09-14T00:15:50.493Z,46.11
2022-09-14T00:16:21.970Z,45.40
2022-09-14T00:16:53.456Z,45.71
2022-09-14T00:17:24.870Z,45.67
2022-09-14T00:17:58.769Z,45.14
2022-09-14T00:18:30.313Z,45.66
2022-09-14T00:19:01.749Z,45.32
2022-09-14T00:19:33.157Z,45.86
2022-09-14T00:20:04.615Z,45.69
2022-09-14T00:20:35.988Z,45.71
2022-09-14T00:21:07.476Z,45.71
2022-09-14T00:21:38.920Z,45.75
2022-09-14T00:22:10.332Z,45.67
2022-09-14T00:22:41.765Z,45.44
2022-09-14T00:23:13.250Z,45.53
2022-09-14T00:23:44.637Z,45.79
2022-09-14T00:24:16.037Z,45.76
2022-09-14T00:24:47.454Z,45.56
2022-09-14T00:25:18.866Z,45.72
2022-09-14T00:25:50.257Z,45.74
2022-09-14T00:26:21.716Z,45.74
2022-09-14T00:26:54.974Z,45.83
2022-09-14T00:27:26.398Z,45.78
2022-09-14T00:28:00.871Z,45.40
2022-09-14T00:28:32.338Z,45.52
2022-09-14T00:29:03.867Z,45.98
2022-09-14T00:29:35.264Z,45.61
2022-09-14T00:30:06.739Z,45.90
2022-09-14T00:30:38.119Z,45.67
2022-09-14T00:31:09.548Z,45.82
2022-09-14T00:31:41.107Z,45.60
2022-09-14T00:32:12.636Z,45.59
2022-09-14T00:32:46.519Z,45.75
2022-09-14T00:33:17.906Z,45.96
2022-09-14T00:33:49.412Z,46.05
2022-09-14T00:34:20.824Z,46.05
2022-09-14T00:34:52.211Z,46.00
2022-09-14T00:35:23.582Z,46.05
2022-09-14T00:35:55.004Z,46.08
2022-09-14T00:36:26.502Z,45.80
2022-09-14T00:36:57.889Z,45.65
2022-09-14T00:37:29.375Z,45.80
2022-09-14T00:38:00.788Z,46.04
2022-09-14T00:38:32.303Z,45.98
2022-09-14T00:39:03.755Z,45.77
2022-09-14T00:39:35.173Z,45.88
2022-09-14T00:40:06.620Z,45.93
2022-09-14T00:40:38.125Z,45.75
2022-09-14T00:41:09.542Z,45.99
2022-09-14T00:41:40.936Z,45.66
2022-09-14T00:42:12.433Z,46.08
2022-09-14T00:42:43.871Z,45.75
2022-09-14T00:43:15.308Z,46.07
2022-09-14T00:43:46.739Z,45.80
2022-09-14T00:44:18.179Z,46.05
2022-09-14T00:44:49.558Z,45.86
2022-09-14T00:45:21.005Z,45.96
2022-09-14T00:45:52.558Z,45.88
2022-09-14T00:46:24.066Z,46.03
2022-09-14T00:46:55.565Z,45.94
2022-09-14T00:47:26.990Z,45.76
2022-09-14T00:47:58.439Z,45.83
2022-09-14T00:48:29.998Z,45.70
2022-09-14T00:49:01.389Z,45.66
2022-09-14T00:49:32.867Z,45.91
2022-09-14T00:50:04.310Z,45.93
2022-09-14T00:50:35.713Z,46.02
2022-09-14T00:51:07.087Z,45.96
2022-09-14T00:51:38.448Z,45.96
2022-09-14T00:52:09.863Z,45.76
2022-09-14T00:52:41.239Z,46.01
2022-09-14T00:53:12.670Z,45.75
2022-09-14T00:53:44.180Z,45.81
2022-09-14T00:54:15.584Z,46.09
2022-09-14T00:54:46.991Z,45.65
2022-09-14T00:55:18.441Z,45.98
2022-09-14T00:55:49.859Z,45.72
2022-09-14T00:56:21.312Z,45.96
2022-09-14T00:56:52.683Z,45.70
2022-09-14T00:57:24.089Z,45.67
2022-09-14T00:57:55.533Z,45.71
2022-09-14T00:58:28.456Z,45.94
2022-09-14T00:58:59.966Z,45.93
2022-09-14T00:59:31.409Z,45.67
2022-09-14T01:00:05.714Z,45.99
2022-09-14T01:00:37.142Z,45.68
2022-09-14T01:01:08.717Z,46.01
2022-09-14T01:01:40.187Z,45.78
2022-09-14T01:02:11.765Z,46.01
2022-09-14T01:02:43.213Z,46.02
2022-09-14T01:03:14.666Z,45.95
2022-09-14T01:03:46.046Z,46.07
2022-09-14T01:04:17.521Z,45.82
2022-09-14T01:04:48.991Z,46.00
2022-09-14T01:05:20.376Z,45.79
2022-09-14T01:05:51.851Z,46.07
2022-09-14T01:06:23.340Z,46.10
2022-09-14T01:06:54.823Z,45.87
2022-09-14T01:07:26.281Z,46.00
2022-09-14T01:07:57.736Z,45.89
2022-09-14T01:08:29.133Z,46.02
2022-09-14T01:09:00.558Z,45.70
2022-09-14T01:09:31.976Z,46.05
2022-09-14T01:10:03.528Z,45.96
2022-09-14T01:10:34.897Z,45.64
2022-09-14T01:11:06.280Z,45.86
2022-09-14T01:11:37.699Z,45.82
2022-09-14T01:12:09.194Z,45.64
2022-09-14T01:12:40.620Z,45.94
2022-09-14T01:13:12.043Z,45.95
2022-09-14T01:13:43.465Z,45.68
2022-09-14T01:14:14.904Z,45.69
2022-09-14T01:14:46.394Z,45.81
2022-09-14T01:15:17.766Z,45.93
2022-09-14T01:15:49.206Z,45.64
2022-09-14T01:16:20.682Z,45.97
2022-09-14T01:16:52.176Z,45.74
2022-09-14T01:17:23.600Z,45.93
2022-09-14T01:17:54.994Z,45.62
2022-09-14T01:18:26.398Z,45.69
2022-09-14T01:18:57.843Z,45.77
2022-09-14T01:19:29.267Z,45.65
2022-09-14T01:20:00.771Z,45.66
2022-09-14T01:20:32.211Z,45.92
2022-09-14T01:21:03.714Z,46.02
2022-09-14T01:21:35.152Z,45.72
2022-09-14T01:22:06.629Z,45.67
2022-09-14T01:22:38.027Z,45.78
2022-09-14T01:23:09.468Z,45.96
2022-09-14T01:23:40.860Z,45.83
2022-09-14T01:24:12.255Z,46.13
2022-09-14T01:24:43.716Z,45.74
2022-09-14T01:25:15.095Z,45.92
2022-09-14T01:25:46.498Z,45.85
2022-09-14T01:26:17.930Z,46.02
2022-09-14T01:26:49.375Z,45.77
2022-09-14T01:27:20.759Z,45.77
2022-09-14T01:27:52.209Z,45.86
2022-09-14T01:28:25.841Z,45.99
2022-09-14T01:28:57.365Z,45.84
2022-09-14T01:29:28.748Z,45.73
2022-09-14T01:30:00.166Z,46.11
2022-09-14T01:30:34.288Z,45.84
2022-09-14T01:31:05.662Z,45.79
2022-09-14T01:31:37.187Z,46.12
2022-09-14T01:32:08.665Z,45.95
2022-09-14T01:32:40.055Z,45.64
2022-09-14T01:33:11.476Z,46.05
2022-09-14T01:33:43.070Z,45.75
2022-09-14T01:34:14.563Z,45.99
2022-09-14T01:34:45.951Z,45.72
2022-09-14T01:35:20.457Z,45.75
2022-09-14T01:35:51.898Z,45.58
2022-09-14T01:36:23.339Z,45.69
2022-09-14T01:36:54.787Z,45.97
2022-09-14T01:37:26.222Z,45.58
2022-09-14T01:37:57.639Z,45.62
2022-09-14T01:38:29.074Z,45.88
2022-09-14T01:39:00.554Z,45.96
2022-09-14T01:39:32.032Z,45.87
2022-09-14T01:40:03.675Z,45.63
2022-09-14T01:40:35.183Z,45.81
2022-09-14T01:41:06.564Z,45.93
2022-09-14T01:41:38.017Z,45.76
2022-09-14T01:42:09.408Z,46.01
2022-09-14T01:42:40.843Z,45.71
2022-09-14T01:43:12.237Z,45.87
2022-09-14T01:43:43.700Z,45.82
2022-09-14T01:44:15.160Z,45.71
2022-09-14T01:44:46.587Z,45.83
2022-09-14T01:45:17.994Z,45.74
2022-09-14T01:45:49.516Z,45.73
2022-09-14T01:46:20.971Z,45.89
2022-09-14T01:46:52.405Z,45.77
2022-09-14T01:47:23.864Z,45.86
2022-09-14T01:47:55.275Z,45.59
2022-09-14T01:48:26.675Z,45.88
2022-09-14T01:48:58.067Z,45.97
2022-09-14T01:49:29.529Z,45.64
2022-09-14T01:50:00.921Z,45.93
2022-09-14T01:50:35.133Z,45.69
2022-09-14T01:51:06.550Z,45.81
2022-09-14T01:51:37.932Z,45.73
2022-09-14T01:52:09.345Z,45.81
2022-09-14T01:52:40.756Z,45.63
2022-09-14T01:53:12.223Z,45.68
2022-09-14T01:53:43.613Z,45.69
2022-09-14T01:54:15.081Z,45.99
2022-09-14T01:54:46.566Z,45.89
2022-09-14T01:55:18.027Z,45.58
2022-09-14T01:55:49.450Z,45.90
2022-09-14T01:56:20.865Z,45.85
2022-09-14T01:56:52.273Z,45.73
2022-09-14T01:57:23.705Z,45.84
2022-09-14T01:57:55.146Z,45.61
2022-09-14T01:58:26.586Z,45.63
2022-09-14T01:58:57.987Z,45.88
2022-09-14T01:59:29.485Z,45.55
2022-09-14T02:00:00.922Z,45.81
2022-09-14T02:00:35.328Z,45.59
2022-09-14T02:01:06.838Z,45.81
2022-09-14T02:01:38.379Z,45.63
2022-09-14T02:02:10.110Z,45.84
2022-09-14T02:02:41.835Z,45.86
2022-09-14T02:03:13.581Z,45.62
2022-09-14T02:03:48.198Z,45.62
2022-09-14T02:04:19.762Z,45.63
2022-09-14T02:04:51.382Z,45.63
2022-09-14T02:05:22.868Z,45.85
2022-09-14T02:05:54.245Z,45.91
2022-09-14T02:06:25.682Z,45.51
2022-09-14T02:06:57.058Z,45.61
2022-09-14T02:07:28.472Z,45.48
2022-09-14T02:07:59.896Z,45.84
2022-09-14T02:08:32.907Z,45.47
2022-09-14T02:09:04.364Z,45.74
2022-09-14T02:09:35.878Z,45.59
2022-09-14T02:10:07.302Z,45.61
2022-09-14T02:10:38.716Z,45.76
2022-09-14T02:11:10.168Z,45.75
2022-09-14T02:11:41.610Z,45.51
2022-09-14T02:12:13.092Z,45.79
2022-09-14T02:12:44.516Z,45.77
2022-09-14T02:13:15.939Z,45.51
2022-09-14T02:13:47.412Z,45.61
2022-09-14T02:14:18.891Z,45.52
2022-09-14T02:14:50.354Z,45.43
2022-09-14T02:15:21.732Z,45.47
2022-09-14T02:15:53.270Z,45.74
2022-09-14T02:16:24.753Z,45.63
2022-09-14T02:16:56.156Z,45.63
2022-09-14T02:17:27.555Z,45.46
2022-09-14T02:17:59.102Z,45.51
2022-09-14T02:18:30.535Z,45.63
2022-09-14T02:19:02.071Z,45.62
2022-09-14T02:19:33.510Z,45.37
2022-09-14T02:20:04.944Z,45.68
2022-09-14T02:20:36.373Z,45.62
2022-09-14T02:21:07.931Z,45.37
2022-09-14T02:21:39.374Z,45.22
2022-09-14T02:22:10.869Z,45.56
2022-09-14T02:22:42.320Z,45.26
2022-09-14T02:23:13.777Z,45.27
2022-09-14T02:23:45.354Z,45.41
2022-09-14T02:24:16.832Z,45.59
2022-09-14T02:24:48.195Z,45.22
2022-09-14T02:25:19.790Z,45.52
2022-09-14T02:25:51.233Z,45.30
2022-09-14T02:26:22.712Z,45.29
2022-09-14T02:26:54.108Z,45.20
2022-09-14T02:27:25.486Z,45.28
2022-09-14T02:27:56.919Z,45.39
2022-09-14T02:28:28.350Z,45.27
2022-09-14T02:28:59.816Z,45.46
2022-09-14T02:29:31.188Z,45.29
2022-09-14T02:30:05.628Z,45.53
2022-09-14T02:30:37.073Z,45.29
2022-09-14T02:31:08.557Z,45.52
2022-09-14T02:31:40.086Z,45.36
2022-09-14T02:32:11.614Z,45.57
2022-09-14T02:32:43.031Z,45.52
2022-09-14T02:33:14.536Z,45.60
2022-09-14T02:33:45.933Z,45.53
2022-09-14T02:34:17.467Z,45.34
2022-09-14T02:34:48.854Z,45.18
2022-09-14T02:35:20.378Z,45.32
2022-09-14T02:35:51.808Z,45.50
2022-09-14T02:36:23.190Z,45.22
2022-09-14T02:36:54.601Z,45.15
2022-09-14T02:37:26.023Z,45.50
2022-09-14T02:37:57.485Z,45.43
2022-09-14T02:38:28.877Z,45.29
2022-09-14T02:39:00.355Z,45.14
2022-09-14T02:39:31.726Z,45.38
2022-09-14T02:40:03.194Z,45.14
2022-09-14T02:40:34.639Z,45.44
2022-09-14T02:41:06.054Z,45.42
2022-09-14T02:41:37.485Z,45.42
2022-09-14T02:42:08.966Z,45.29
2022-09-14T02:42:40.336Z,45.08
2022-09-14T02:43:11.772Z,45.21
2022-09-14T02:43:43.317Z,45.34
2022-09-14T02:44:14.848Z,45.23
2022-09-14T02:44:46.296Z,45.17
2022-09-14T02:45:17.751Z,45.34
2022-09-14T02:45:49.152Z,45.07
2022-09-14T02:46:20.588Z,45.02
2022-09-14T02:46:52.072Z,45.06
2022-09-14T02:47:23.581Z,45.30
2022-09-14T02:47:54.981Z,45.28
2022-09-14T02:48:26.492Z,45.36
2022-09-14T02:48:57.967Z,45.23
2022-09-14T02:49:29.373Z,45.42
2022-09-14T02:50:36.323Z,45.07
2022-09-14T02:51:07.509Z,45.32
2022-09-14T02:51:38.676Z,45.47
2022-09-14T02:52:09.977Z,45.43
2022-09-14T02:52:41.372Z,45.07
2022-09-14T02:53:12.805Z,45.34
2022-09-14T02:53:44.283Z,45.38
2022-09-14T02:54:15.704Z,45.36
2022-09-14T02:54:47.149Z,45.36
2022-09-14T02:55:18.586Z,45.47
2022-09-14T02:55:49.987Z,45.09
2022-09-14T02:56:21.473Z,45.42
2022-09-14T02:56:52.860Z,45.11
2022-09-14T02:57:24.259Z,45.18
2022-09-14T02:57:55.672Z,45.39
2022-09-14T02:58:27.127Z,45.10
2022-09-14T02:58:58.641Z,45.36
2022-09-14T02:59:30.067Z,45.04
2022-09-14T03:00:04.769Z,45.39
2022-09-14T03:00:39.441Z,45.16
2022-09-14T03:01:10.928Z,45.29
2022-09-14T03:01:42.413Z,45.08
2022-09-14T03:02:13.881Z,45.37
2022-09-14T03:02:45.372Z,45.07
2022-09-14T03:03:16.786Z,45.07
2022-09-14T03:03:48.299Z,45.06
2022-09-14T03:04:19.659Z,45.36
2022-09-14T03:04:51.102Z,45.25
2022-09-14T03:05:22.508Z,45.34
2022-09-14T03:05:53.937Z,44.99
2022-09-14T03:06:25.340Z,45.06
2022-09-14T03:06:56.864Z,45.02
2022-09-14T03:07:30.957Z,45.07
2022-09-14T03:08:02.424Z,45.33
2022-09-14T03:08:33.982Z,45.03
2022-09-14T03:09:05.436Z,45.29
2022-09-14T03:09:36.809Z,45.04
2022-09-14T03:10:08.244Z,45.36
2022-09-14T03:10:39.672Z,45.15
2022-09-14T03:11:11.124Z,45.39
2022-09-14T03:11:42.579Z,45.14
2022-09-14T03:12:13.998Z,45.10
2022-09-14T03:12:45.424Z,45.11
2022-09-14T03:13:16.838Z,45.43
2022-09-14T03:13:48.274Z,45.42
2022-09-14T03:14:19.702Z,45.38
2022-09-14T03:14:51.108Z,45.13
2022-09-14T03:15:22.570Z,45.33
2022-09-14T03:15:54.117Z,45.52
2022-09-14T03:16:25.730Z,45.42
2022-09-14T03:16:57.253Z,45.17
2022-09-14T03:17:28.681Z,45.25
2022-09-14T03:18:00.104Z,45.35
2022-09-14T03:18:31.620Z,45.17
2022-09-14T03:19:03.045Z,45.48
2022-09-14T03:19:34.466Z,45.13
2022-09-14T03:20:05.946Z,45.46
2022-09-14T03:20:37.372Z,45.39
2022-09-14T03:21:08.775Z,45.53
2022-09-14T03:21:40.175Z,45.46
2022-09-14T03:22:11.616Z,45.51
2022-09-14T03:22:43.039Z,45.25
2022-09-14T03:23:14.551Z,45.47
2022-09-14T03:23:46.031Z,45.25
2022-09-14T03:24:17.532Z,45.40
2022-09-14T03:24:48.939Z,45.30
2022-09-14T03:25:20.345Z,45.58
2022-09-14T03:25:51.801Z,45.29
2022-09-14T03:26:23.216Z,45.50
2022-09-14T03:26:54.609Z,45.60
2022-09-14T03:27:26.078Z,45.23
2022-09-14T03:27:57.518Z,45.78
2022-09-14T03:28:29.036Z,45.24
2022-09-14T03:29:00.500Z,45.57
2022-09-14T03:29:31.926Z,45.24
2022-09-14T03:30:03.929Z,45.18
2022-09-14T03:30:35.383Z,45.62
2022-09-14T03:31:06.841Z,45.34
2022-09-14T03:31:38.430Z,45.29
2022-09-14T03:32:09.875Z,45.55
2022-09-14T03:32:41.357Z,45.63
2022-09-14T03:33:12.796Z,45.58
2022-09-14T03:33:44.293Z,45.31
2022-09-14T03:34:15.794Z,45.60
2022-09-14T03:34:47.319Z,45.61
2022-09-14T03:35:18.717Z,45.37
2022-09-14T03:35:50.226Z,45.40
2022-09-14T03:36:21.600Z,45.64
2022-09-14T03:36:52.982Z,45.33
2022-09-14T03:37:24.408Z,45.38
2022-09-14T03:37:55.798Z,45.69
2022-09-14T03:38:27.261Z,45.38
2022-09-14T03:38:58.709Z,45.69
2022-09-14T03:39:30.123Z,45.49
2022-09-14T03:40:01.688Z,45.69
2022-09-14T03:40:33.154Z,45.37
2022-09-14T03:41:04.601Z,45.66
2022-09-14T03:41:35.995Z,45.36
2022-09-14T03:42:07.455Z,45.65
2022-09-14T03:42:38.921Z,45.42
2022-09-14T03:43:10.374Z,45.48
2022-09-14T03:43:41.880Z,45.44
2022-09-14T03:44:13.355Z,45.72
2022-09-14T03:44:44.821Z,45.70
2022-09-14T03:45:16.275Z,45.69
2022-09-14T03:45:47.738Z,45.73
2022-09-14T03:46:19.183Z,45.70
2022-09-14T03:46:50.700Z,45.67
2022-09-14T03:47:22.127Z,45.59
2022-09-14T03:47:53.530Z,45.63
2022-09-14T03:48:24.989Z,45.52
2022-09-14T03:48:56.427Z,45.61
2022-09-14T03:49:27.878Z,45.41
2022-09-14T03:49:59.296Z,45.51
2022-09-14T03:50:30.760Z,45.53
2022-09-14T03:51:02.253Z,45.78
2022-09-14T03:51:33.721Z,45.64
2022-09-14T03:52:05.233Z,45.73
2022-09-14T03:52:36.665Z,45.67
2022-09-14T03:53:08.035Z,45.60
2022-09-14T03:53:39.574Z,45.75
2022-09-14T03:54:11.031Z,45.65
2022-09-14T03:54:42.499Z,45.45
2022-09-14T03:55:13.909Z,45.73
2022-09-14T03:55:45.597Z,45.46
2022-09-14T03:56:17.030Z,45.77
2022-09-14T03:56:48.622Z,45.51
2022-09-14T03:57:20.031Z,45.52
2022-09-14T03:57:51.541Z,45.63
2022-09-14T03:58:22.979Z,45.62
2022-09-14T03:58:54.374Z,45.65
2022-09-14T03:59:25.796Z,45.49
2022-09-14T03:59:57.272Z,45.60
2022-09-14T04:00:28.770Z,45.70
2022-09-14T04:01:00.215Z,45.44
2022-09-14T04:01:31.663Z,45.64
2022-09-14T04:02:03.197Z,45.52
2022-09-14T04:02:38.102Z,45.48
2022-09-14T04:03:09.593Z,45.78
2022-09-14T04:03:41.035Z,45.65
2022-09-14T04:04:12.521Z,45.72
2022-09-14T04:04:43.962Z,45.48
2022-09-14T04:05:19.771Z,45.48
2022-09-14T04:05:53.089Z,45.77
2022-09-14T04:06:24.595Z,45.74
2022-09-14T04:06:55.967Z,45.46
2022-09-14T04:07:27.335Z,45.74
2022-09-14T04:07:58.741Z,45.55
2022-09-14T04:08:30.160Z,45.50
2022-09-14T04:09:01.575Z,45.69
2022-09-14T04:09:33.046Z,45.43
2022-09-14T04:10:04.539Z,45.53
2022-09-14T04:10:36.016Z,45.51
2022-09-14T04:11:07.441Z,45.48
2022-09-14T04:11:38.893Z,45.44
2022-09-14T04:12:10.369Z,45.77
2022-09-14T04:12:41.807Z,45.55
2022-09-14T04:13:13.280Z,45.48
2022-09-14T04:13:44.710Z,45.78
2022-09-14T04:14:16.170Z,45.73
2022-09-14T04:14:47.584Z,45.38
2022-09-14T04:15:19.152Z,45.58
2022-09-14T04:15:50.602Z,45.42
2022-09-14T04:16:22.122Z,45.84
2022-09-14T04:16:53.599Z,45.50
2022-09-14T04:17:25.006Z,45.47
2022-09-14T04:17:56.452Z,45.53
2022-09-14T04:18:27.870Z,45.46
2022-09-14T04:18:59.268Z,45.52
2022-09-14T04:19:30.752Z,45.80
2022-09-14T04:20:02.193Z,45.80
2022-09-14T04:20:33.771Z,45.51
2022-09-14T04:21:08.289Z,45.75
2022-09-14T04:21:40.309Z,45.42
2022-09-14T04:22:11.749Z,45.72
2022-09-14T04:22:43.168Z,45.52
2022-09-14T04:23:14.603Z,45.44
2022-09-14T04:24:12.833Z,45.54
2022-09-14T04:24:37.456Z,45.45
2022-09-14T04:25:08.955Z,45.39
2022-09-14T04:25:40.408Z,45.45
2022-09-14T04:26:11.950Z,45.76
2022-09-14T04:26:43.385Z,45.42
2022-09-14T04:27:14.788Z,45.80
2022-09-14T04:27:55.003Z,45.48
2022-09-14T04:28:35.783Z,45.68
2022-09-14T04:29:07.258Z,45.52
2022-09-14T04:29:38.706Z,45.71
2022-09-14T04:30:10.236Z,45.51
2022-09-14T04:30:41.653Z,45.62
2022-09-14T04:31:13.211Z,45.51
2022-09-14T04:31:44.918Z,45.54
2022-09-14T04:32:16.408Z,45.56
2022-09-14T04:32:47.895Z,45.88
2022-09-14T04:33:19.366Z,45.53
2022-09-14T04:33:50.803Z,45.79
2022-09-14T04:34:22.275Z,45.63
2022-09-14T04:34:53.659Z,45.70
2022-09-14T04:35:25.137Z,45.67
2022-09-14T04:35:56.633Z,45.90
2022-09-14T04:36:28.081Z,45.94
2022-09-14T04:36:59.521Z,45.91
2022-09-14T04:37:31.042Z,45.69
2022-09-14T04:38:02.666Z,45.97
2022-09-14T04:38:34.162Z,45.83
2022-09-14T04:39:05.662Z,45.99
2022-09-14T04:39:37.060Z,45.73
2022-09-14T04:40:08.513Z,46.01
2022-09-14T04:40:40.129Z,45.87
2022-09-14T04:41:11.536Z,46.01
2022-09-14T04:41:42.951Z,45.90
2022-09-14T04:42:14.361Z,45.90
2022-09-14T04:42:45.745Z,46.13
2022-09-14T04:43:17.153Z,45.94
2022-09-14T04:43:48.565Z,45.82
2022-09-14T04:44:19.955Z,45.91
2022-09-14T04:44:51.389Z,45.81
2022-09-14T04:45:22.852Z,46.13
2022-09-14T04:45:54.393Z,46.06
2022-09-14T04:46:25.904Z,45.83
2022-09-14T04:46:57.491Z,45.95
2022-09-14T04:47:28.956Z,45.90
2022-09-14T04:48:00.350Z,45.98
2022-09-14T04:48:31.771Z,46.18
2022-09-14T04:49:03.216Z,45.85
2022-09-14T04:49:34.707Z,45.80
2022-09-14T04:50:06.205Z,46.19
2022-09-14T04:50:37.593Z,45.84
2022-09-14T04:51:09.130Z,46.16
2022-09-14T04:51:40.580Z,46.23
2022-09-14T04:52:12.044Z,46.12
2022-09-14T04:52:43.440Z,45.94
2022-09-14T04:53:14.878Z,46.19
2022-09-14T04:53:46.324Z,45.88
2022-09-14T04:54:17.733Z,45.96
2022-09-14T04:54:49.192Z,46.22
2022-09-14T04:55:20.611Z,45.93
2022-09-14T04:55:52.096Z,46.11
2022-09-14T04:56:23.546Z,46.13
2022-09-14T04:56:54.967Z,46.26
2022-09-14T04:57:26.401Z,46.12
2022-09-14T04:57:57.894Z,46.25
2022-09-14T04:58:29.311Z,45.96
2022-09-14T04:59:00.741Z,46.30
2022-09-14T04:59:32.145Z,45.90
2022-09-14T05:00:07.069Z,45.95
2022-09-14T05:00:38.484Z,46.05
2022-09-14T05:01:09.976Z,46.36
2022-09-14T05:01:41.461Z,45.97
2022-09-14T05:02:13.135Z,46.20
2022-09-14T05:02:44.635Z,46.46
2022-09-14T05:03:16.176Z,46.21
2022-09-14T05:03:47.736Z,45.98
2022-09-14T05:04:19.198Z,46.39
2022-09-14T05:04:51.182Z,46.11
2022-09-14T05:05:22.649Z,46.35
2022-09-14T05:05:54.177Z,46.19
2022-09-14T05:06:25.585Z,46.25
2022-09-14T05:06:57.003Z,46.21
2022-09-14T05:07:28.445Z,46.11
2022-09-14T05:07:59.888Z,46.39
2022-09-14T05:08:31.360Z,46.06
2022-09-14T05:09:02.834Z,46.04
2022-09-14T05:09:34.379Z,46.05
2022-09-14T05:10:05.816Z,46.37
2022-09-14T05:10:37.245Z,46.08
2022-09-14T05:11:08.685Z,46.28
2022-09-14T05:11:40.087Z,46.14
2022-09-14T05:12:11.484Z,46.49
2022-09-14T05:12:42.933Z,46.11
2022-09-14T05:13:14.311Z,46.46
2022-09-14T05:13:49.701Z,46.22
2022-09-14T05:14:21.750Z,46.38
2022-09-14T05:14:53.145Z,46.20
2022-09-14T05:15:24.572Z,46.14
2022-09-14T05:15:56.023Z,46.48
2022-09-14T05:16:27.540Z,46.63
2022-09-14T05:16:59.013Z,46.30
2022-09-14T05:17:30.403Z,46.34
2022-09-14T05:18:01.859Z,46.41
2022-09-14T05:18:33.297Z,46.18
2022-09-14T05:19:04.783Z,46.49
2022-09-14T05:19:36.251Z,46.13
2022-09-14T05:20:07.663Z,46.46
2022-09-14T05:20:39.219Z,46.32
2022-09-14T05:21:10.713Z,46.42
2022-09-14T05:21:42.135Z,46.29
2022-09-14T05:22:13.535Z,46.27
2022-09-14T05:22:44.911Z,46.47
2022-09-14T05:23:16.337Z,46.50
2022-09-14T05:23:47.775Z,46.28
2022-09-14T05:24:19.242Z,46.51
2022-09-14T05:24:50.729Z,46.19
2022-09-14T05:25:22.183Z,46.40
2022-09-14T05:25:53.710Z,46.42
2022-09-14T05:26:25.188Z,46.20
2022-09-14T05:27:00.472Z,46.23
2022-09-14T05:27:33.068Z,46.19
2022-09-14T05:28:04.560Z,46.38
2022-09-14T05:28:36.020Z,46.18
2022-09-14T05:29:07.435Z,46.22
2022-09-14T05:29:38.908Z,46.21
2022-09-14T05:30:10.351Z,46.49
2022-09-14T05:30:41.754Z,46.19
2022-09-14T05:31:13.315Z,46.48
2022-09-14T05:31:44.851Z,46.21
2022-09-14T05:32:16.328Z,46.58
2022-09-14T05:32:47.745Z,46.54
2022-09-14T05:33:19.176Z,46.32
2022-09-14T05:33:50.663Z,46.55
2022-09-14T05:34:22.070Z,46.52
2022-09-14T05:34:53.657Z,46.30
2022-09-14T05:35:25.262Z,46.32
2022-09-14T05:35:56.791Z,46.30
2022-09-14T05:36:28.283Z,46.38
2022-09-14T05:36:59.796Z,46.32
2022-09-14T05:37:31.186Z,46.35
2022-09-14T05:38:02.642Z,46.72
2022-09-14T05:38:34.060Z,46.69
2022-09-14T05:39:05.484Z,46.61
2022-09-14T05:39:36.917Z,46.47
2022-09-14T05:40:08.362Z,46.64
2022-09-14T05:40:39.841Z,46.35
2022-09-14T05:41:11.232Z,46.28
2022-09-14T05:41:42.664Z,46.31
2022-09-14T05:42:14.097Z,46.63
2022-09-14T05:42:45.494Z,46.33
2022-09-14T05:43:16.940Z,46.51
2022-09-14T05:43:48.312Z,46.34
2022-09-14T05:44:19.743Z,46.24
2022-09-14T05:44:51.257Z,46.25
2022-09-14T05:45:22.644Z,46.30
2022-09-14T05:45:54.270Z,46.58
2022-09-14T05:46:25.854Z,46.38
2022-09-14T05:46:57.347Z,46.57
2022-09-14T05:47:28.745Z,46.25
2022-09-14T05:48:00.203Z,46.36
2022-09-14T05:48:31.592Z,46.28
2022-09-14T05:49:03.037Z,46.42
2022-09-14T05:49:34.465Z,46.36
2022-09-14T05:50:05.991Z,46.15
2022-09-14T05:50:37.434Z,46.54
2022-09-14T05:51:08.871Z,46.24
2022-09-14T05:51:40.265Z,46.48
2022-09-14T05:52:11.741Z,46.10
2022-09-14T05:52:43.229Z,46.23
2022-09-14T05:53:14.607Z,46.20
2022-09-14T05:53:46.018Z,46.24
2022-09-14T05:54:17.404Z,46.38
2022-09-14T05:54:48.835Z,46.21
2022-09-14T05:55:20.335Z,46.50
2022-09-14T05:55:51.942Z,46.54
2022-09-14T05:56:23.365Z,46.19
2022-09-14T05:56:54.816Z,46.50
2022-09-14T05:57:26.249Z,46.59
2022-09-14T05:57:57.767Z,46.48
2022-09-14T05:58:29.204Z,46.24
2022-09-14T05:59:00.739Z,46.50
2022-09-14T05:59:32.132Z,46.29
2022-09-14T06:00:03.848Z,46.57
2022-09-14T06:00:38.097Z,46.34
2022-09-14T06:01:09.549Z,46.59
2022-09-14T06:01:41.034Z,46.34
2022-09-14T06:02:16.340Z,46.64
2022-09-14T06:02:49.359Z,46.56
2022-09-14T06:03:20.813Z,46.37
2022-09-14T06:03:52.273Z,46.68
2022-09-14T06:04:23.773Z,46.67
2022-09-14T06:04:55.253Z,46.72
2022-09-14T06:05:27.005Z,46.43
2022-09-14T06:05:58.502Z,46.72
2022-09-14T06:06:29.977Z,46.36
2022-09-14T06:07:17.952Z,46.41
2022-09-14T06:07:50.065Z,46.35
2022-09-14T06:08:21.502Z,46.27
2022-09-14T06:08:52.953Z,46.51
2022-09-14T06:09:24.332Z,46.67
2022-09-14T06:09:55.745Z,46.62
2022-09-14T06:10:27.312Z,46.73
2022-09-14T06:10:58.734Z,46.75
2022-09-14T06:11:30.147Z,46.65
2022-09-14T06:12:01.600Z,46.68
2022-09-14T06:12:33.043Z,46.40
2022-09-14T06:13:04.592Z,46.74
2022-09-14T06:13:35.982Z,46.66
2022-09-14T06:14:07.470Z,46.62
2022-09-14T06:14:38.960Z,46.40
2022-09-14T06:15:10.387Z,46.67
2022-09-14T06:15:41.802Z,46.50
2022-09-14T06:16:13.250Z,46.74
2022-09-14T06:16:44.655Z,46.71
2022-09-14T06:17:16.106Z,46.65
2022-09-14T06:17:47.513Z,46.80
2022-09-14T06:18:18.951Z,46.44
2022-09-14T06:18:50.370Z,46.71
2022-09-14T06:19:21.854Z,46.35
2022-09-14T06:19:53.371Z,46.81
2022-09-14T06:20:24.827Z,46.71
2022-09-14T06:20:56.230Z,46.35
2022-09-14T06:21:27.622Z,46.40
2022-09-14T06:21:59.041Z,46.47
2022-09-14T06:22:30.908Z,46.52
2022-09-14T06:23:02.343Z,46.50
2022-09-14T06:23:33.860Z,46.71
2022-09-14T06:24:05.331Z,46.41
2022-09-14T06:24:36.739Z,46.33
2022-09-14T06:25:08.260Z,46.32
2022-09-14T06:25:39.692Z,46.38
2022-09-14T06:26:11.145Z,46.67
2022-09-14T06:26:42.613Z,46.35
2022-09-14T06:27:14.012Z,46.71
2022-09-14T06:27:45.463Z,46.36
2022-09-14T06:28:16.854Z,46.46
2022-09-14T06:28:48.276Z,46.39
2022-09-14T06:29:19.716Z,46.73
2022-09-14T06:29:51.086Z,46.30
2022-09-14T06:30:22.595Z,46.35
2022-09-14T06:30:53.985Z,46.63
2022-09-14T06:31:25.610Z,46.71
2022-09-14T06:31:57.078Z,46.56
2022-09-14T06:32:28.572Z,46.72
2022-09-14T06:32:59.977Z,46.56
2022-09-14T06:33:31.497Z,46.64
2022-09-14T06:34:02.976Z,46.65
2022-09-14T06:34:34.395Z,46.36
2022-09-14T06:35:11.763Z,46.71
2022-09-14T06:35:43.823Z,46.67
2022-09-14T06:36:15.259Z,46.37
2022-09-14T06:36:46.804Z,46.40
2022-09-14T06:37:18.235Z,46.42
2022-09-14T06:37:49.751Z,46.32
2022-09-14T06:38:21.199Z,46.62
2022-09-14T06:38:52.837Z,46.35
2022-09-14T06:39:24.385Z,46.64
2022-09-14T06:39:56.056Z,46.67
2022-09-14T06:40:30.297Z,46.38
2022-09-14T06:41:01.848Z,46.71
2022-09-14T06:41:33.261Z,46.40
2022-09-14T06:42:04.711Z,46.63
2022-09-14T06:42:36.170Z,46.40
2022-09-14T06:43:07.560Z,46.64
2022-09-14T06:43:39.041Z,46.48
2022-09-14T06:44:10.445Z,46.66
2022-09-14T06:44:41.909Z,46.34
2022-09-14T06:45:13.416Z,46.29
2022-09-14T06:45:44.793Z,46.67
2022-09-14T06:46:16.216Z,46.54
2022-09-14T06:46:47.813Z,46.64
2022-09-14T06:47:19.306Z,46.73
2022-09-14T06:47:50.792Z,46.40
2022-09-14T06:48:22.232Z,46.66